sensor_id;sensor_type;location;lat;lon;timestamp;P1;durP1;ratioP1;P2;durP2;ratioP2
9481;SDS011;4779;48.062;11.672;2023-03-24T00:00:09;3.43;;;3.13;;
9481;SDS011;4779;48.062;11.672;2023-03-24T00:02:38;4.50;;;3.10;;
9481;SDS011;4779;48.062;11.672;2023-03-24T00:05:07;3.10;;;2.80;;
9481;SDS011;4779;48.062;11.672;2023-03-24T00:07:36;3.40;;;2.90;;
9481;SDS011;4779;48.062;11.672;2023-03-24T00:10:04;4.50;;;3.57;;
9481;SDS011;4779;48.062;11.672;2023-03-24T00:12:34;4.20;;;3.33;;
9481;SDS011;4779;48.062;11.672;2023-03-24T00:15:03;4.77;;;3.90;;
9481;SDS011;4779;48.062;11.672;2023-03-24T00:17:31;5.17;;;3.53;;
9481;SDS011;4779;48.062;11.672;2023-03-24T00:20:00;4.80;;;3.63;;
9481;SDS011;4779;48.062;11.672;2023-03-24T00:22:31;6.20;;;4.00;;
9481;SDS011;4779;48.062;11.672;2023-03-24T00:24:58;4.00;;;3.60;;
9481;SDS011;4779;48.062;11.672;2023-03-24T00:27:28;4.87;;;3.20;;
9481;SDS011;4779;48.062;11.672;2023-03-24T00:29:57;3.33;;;2.93;;
9481;SDS011;4779;48.062;11.672;2023-03-24T00:32:24;3.50;;;3.20;;
9481;SDS011;4779;48.062;11.672;2023-03-24T00:34:51;3.33;;;3.00;;
9481;SDS011;4779;48.062;11.672;2023-03-24T00:37:18;3.30;;;3.00;;
9481;SDS011;4779;48.062;11.672;2023-03-24T00:39:45;4.77;;;3.60;;
9481;SDS011;4779;48.062;11.672;2023-03-24T00:42:12;3.60;;;3.30;;
9481;SDS011;4779;48.062;11.672;2023-03-24T00:44:39;4.07;;;3.40;;
9481;SDS011;4779;48.062;11.672;2023-03-24T00:47:10;4.57;;;3.50;;
9481;SDS011;4779;48.062;11.672;2023-03-24T00:49:37;3.80;;;3.30;;
9481;SDS011;4779;48.062;11.672;2023-03-24T00:52:11;4.90;;;3.50;;
9481;SDS011;4779;48.062;11.672;2023-03-24T00:54:40;4.37;;;3.67;;
9481;SDS011;4779;48.062;11.672;2023-03-24T00:57:07;4.83;;;3.60;;
9481;SDS011;4779;48.062;11.672;2023-03-24T00:59:37;4.10;;;3.70;;
9481;SDS011;4779;48.062;11.672;2023-03-24T01:02:13;4.23;;;3.43;;
9481;SDS011;4779;48.062;11.672;2023-03-24T01:04:43;4.23;;;3.47;;
9481;SDS011;4779;48.062;11.672;2023-03-24T01:07:11;3.43;;;3.13;;
9481;SDS011;4779;48.062;11.672;2023-03-24T01:09:42;5.23;;;3.70;;
9481;SDS011;4779;48.062;11.672;2023-03-24T01:12:15;4.63;;;3.30;;
9481;SDS011;4779;48.062;11.672;2023-03-24T01:14:43;5.23;;;3.77;;
9481;SDS011;4779;48.062;11.672;2023-03-24T01:17:10;4.53;;;3.80;;
9481;SDS011;4779;48.062;11.672;2023-03-24T01:19:39;4.43;;;3.37;;
9481;SDS011;4779;48.062;11.672;2023-03-24T01:22:06;4.83;;;3.67;;
9481;SDS011;4779;48.062;11.672;2023-03-24T01:24:34;3.57;;;3.27;;
9481;SDS011;4779;48.062;11.672;2023-03-24T01:27:01;4.20;;;3.80;;
9481;SDS011;4779;48.062;11.672;2023-03-24T01:29:28;5.63;;;4.90;;
9481;SDS011;4779;48.062;11.672;2023-03-24T01:31:55;5.40;;;4.90;;
9481;SDS011;4779;48.062;11.672;2023-03-24T01:34:22;4.87;;;4.20;;
9481;SDS011;4779;48.062;11.672;2023-03-24T01:36:51;5.93;;;4.43;;
9481;SDS011;4779;48.062;11.672;2023-03-24T01:39:18;4.83;;;3.70;;
9481;SDS011;4779;48.062;11.672;2023-03-24T01:41:45;4.33;;;3.87;;
9481;SDS011;4779;48.062;11.672;2023-03-24T01:44:22;5.10;;;3.47;;
9481;SDS011;4779;48.062;11.672;2023-03-24T01:46:51;3.63;;;3.33;;
9481;SDS011;4779;48.062;11.672;2023-03-24T01:49:18;4.07;;;3.60;;
9481;SDS011;4779;48.062;11.672;2023-03-24T01:51:46;4.60;;;3.77;;
9481;SDS011;4779;48.062;11.672;2023-03-24T01:54:17;4.80;;;3.40;;
9481;SDS011;4779;48.062;11.672;2023-03-24T01:56:48;4.70;;;3.70;;
9481;SDS011;4779;48.062;11.672;2023-03-24T01:59:18;4.07;;;3.67;;
9481;SDS011;4779;48.062;11.672;2023-03-24T02:01:50;3.63;;;3.17;;
9481;SDS011;4779;48.062;11.672;2023-03-24T02:04:18;3.40;;;2.97;;
9481;SDS011;4779;48.062;11.672;2023-03-24T02:06:47;5.03;;;2.93;;
9481;SDS011;4779;48.062;11.672;2023-03-24T02:09:14;3.90;;;3.30;;
9481;SDS011;4779;48.062;11.672;2023-03-24T02:11:43;5.10;;;3.77;;
9481;SDS011;4779;48.062;11.672;2023-03-24T02:14:10;3.60;;;3.30;;
9481;SDS011;4779;48.062;11.672;2023-03-24T02:16:51;3.83;;;3.27;;
9481;SDS011;4779;48.062;11.672;2023-03-24T02:19:53;3.80;;;3.40;;
9481;SDS011;4779;48.062;11.672;2023-03-24T02:22:46;3.53;;;3.23;;
9481;SDS011;4779;48.062;11.672;2023-03-24T02:25:58;5.10;;;3.57;;
9481;SDS011;4779;48.062;11.672;2023-03-24T02:28:48;6.60;;;3.63;;
9481;SDS011;4779;48.062;11.672;2023-03-24T03:04:57;4.90;;;3.13;;
9481;SDS011;4779;48.062;11.672;2023-03-24T03:07:29;3.20;;;2.70;;
9481;SDS011;4779;48.062;11.672;2023-03-24T03:10:02;3.53;;;2.93;;
9481;SDS011;4779;48.062;11.672;2023-03-24T03:12:33;4.93;;;3.13;;
9481;SDS011;4779;48.062;11.672;2023-03-24T03:15:04;3.37;;;3.07;;
9481;SDS011;4779;48.062;11.672;2023-03-24T03:17:35;3.80;;;3.43;;
9481;SDS011;4779;48.062;11.672;2023-03-24T03:20:09;4.03;;;3.40;;
9481;SDS011;4779;48.062;11.672;2023-03-24T03:22:42;3.73;;;3.40;;
9481;SDS011;4779;48.062;11.672;2023-03-24T03:25:15;3.53;;;3.23;;
9481;SDS011;4779;48.062;11.672;2023-03-24T03:27:47;5.70;;;3.60;;
9481;SDS011;4779;48.062;11.672;2023-03-24T03:30:17;5.83;;;3.70;;
9481;SDS011;4779;48.062;11.672;2023-03-24T03:32:49;3.90;;;3.50;;
9481;SDS011;4779;48.062;11.672;2023-03-24T03:35:21;4.27;;;3.50;;
9481;SDS011;4779;48.062;11.672;2023-03-24T03:37:52;3.67;;;2.93;;
9481;SDS011;4779;48.062;11.672;2023-03-24T03:40:26;3.40;;;3.10;;
9481;SDS011;4779;48.062;11.672;2023-03-24T03:42:59;3.70;;;3.10;;
9481;SDS011;4779;48.062;11.672;2023-03-24T03:45:27;4.33;;;3.17;;
9481;SDS011;4779;48.062;11.672;2023-03-24T03:47:54;4.10;;;3.70;;
9481;SDS011;4779;48.062;11.672;2023-03-24T03:50:22;3.47;;;3.17;;
9481;SDS011;4779;48.062;11.672;2023-03-24T03:52:49;3.37;;;3.07;;
9481;SDS011;4779;48.062;11.672;2023-03-24T03:55:17;3.40;;;3.10;;
9481;SDS011;4779;48.062;11.672;2023-03-24T03:57:45;3.97;;;3.03;;
9481;SDS011;4779;48.062;11.672;2023-03-24T04:00:13;5.33;;;3.30;;
9481;SDS011;4779;48.062;11.672;2023-03-24T04:02:48;4.47;;;3.97;;
9481;SDS011;4779;48.062;11.672;2023-03-24T04:05:31;5.57;;;4.00;;
9481;SDS011;4779;48.062;11.672;2023-03-24T04:08:16;4.23;;;3.83;;
9481;SDS011;4779;48.062;11.672;2023-03-24T04:10:51;4.23;;;3.10;;
9481;SDS011;4779;48.062;11.672;2023-03-24T04:13:36;4.03;;;3.50;;
9481;SDS011;4779;48.062;11.672;2023-03-24T04:16:11;3.40;;;3.10;;
9481;SDS011;4779;48.062;11.672;2023-03-24T04:18:58;4.73;;;3.63;;
9481;SDS011;4779;48.062;11.672;2023-03-24T04:21:50;3.60;;;3.30;;
9481;SDS011;4779;48.062;11.672;2023-03-24T04:24:36;4.17;;;3.70;;
9481;SDS011;4779;48.062;11.672;2023-03-24T04:27:08;3.77;;;3.40;;
9481;SDS011;4779;48.062;11.672;2023-03-24T04:29:43;3.90;;;3.40;;
9481;SDS011;4779;48.062;11.672;2023-03-24T04:32:20;4.93;;;3.83;;
9481;SDS011;4779;48.062;11.672;2023-03-24T04:34:55;4.17;;;3.50;;
9481;SDS011;4779;48.062;11.672;2023-03-24T04:37:27;4.37;;;3.80;;
9481;SDS011;4779;48.062;11.672;2023-03-24T04:39:56;3.93;;;3.63;;
9481;SDS011;4779;48.062;11.672;2023-03-24T04:42:26;4.07;;;3.47;;
9481;SDS011;4779;48.062;11.672;2023-03-24T04:44:57;4.93;;;3.50;;
9481;SDS011;4779;48.062;11.672;2023-03-24T04:47:25;4.10;;;3.50;;
9481;SDS011;4779;48.062;11.672;2023-03-24T04:49:59;4.13;;;3.70;;
9481;SDS011;4779;48.062;11.672;2023-03-24T04:52:28;3.73;;;3.43;;
9481;SDS011;4779;48.062;11.672;2023-03-24T04:54:55;5.07;;;4.00;;
9481;SDS011;4779;48.062;11.672;2023-03-24T04:57:22;4.80;;;3.90;;
9481;SDS011;4779;48.062;11.672;2023-03-24T04:59:49;4.33;;;3.53;;
9481;SDS011;4779;48.062;11.672;2023-03-24T05:02:16;4.60;;;3.87;;
9481;SDS011;4779;48.062;11.672;2023-03-24T05:04:43;4.20;;;3.80;;
9481;SDS011;4779;48.062;11.672;2023-03-24T05:07:10;5.03;;;3.90;;
9481;SDS011;4779;48.062;11.672;2023-03-24T05:09:40;4.23;;;3.67;;
9481;SDS011;4779;48.062;11.672;2023-03-24T05:12:07;6.10;;;5.50;;
9481;SDS011;4779;48.062;11.672;2023-03-24T05:14:35;9.27;;;7.93;;
9481;SDS011;4779;48.062;11.672;2023-03-24T05:17:01;7.50;;;6.17;;
9481;SDS011;4779;48.062;11.672;2023-03-24T05:19:28;6.33;;;5.73;;
9481;SDS011;4779;48.062;11.672;2023-03-24T05:21:56;6.53;;;5.27;;
9481;SDS011;4779;48.062;11.672;2023-03-24T05:24:23;5.17;;;4.67;;
9481;SDS011;4779;48.062;11.672;2023-03-24T05:26:52;4.70;;;4.30;;
9481;SDS011;4779;48.062;11.672;2023-03-24T05:29:18;6.33;;;4.50;;
9481;SDS011;4779;48.062;11.672;2023-03-24T05:31:45;5.10;;;4.50;;
9481;SDS011;4779;48.062;11.672;2023-03-24T05:34:12;6.13;;;5.00;;
9481;SDS011;4779;48.062;11.672;2023-03-24T05:36:39;4.50;;;4.10;;
9481;SDS011;4779;48.062;11.672;2023-03-24T05:39:06;5.00;;;4.50;;
9481;SDS011;4779;48.062;11.672;2023-03-24T05:41:33;4.63;;;4.23;;
9481;SDS011;4779;48.062;11.672;2023-03-24T05:44:01;5.30;;;4.80;;
9481;SDS011;4779;48.062;11.672;2023-03-24T05:46:28;4.37;;;3.97;;
9481;SDS011;4779;48.062;11.672;2023-03-24T05:48:55;4.97;;;4.57;;
9481;SDS011;4779;48.062;11.672;2023-03-24T05:51:21;5.37;;;4.87;;
9481;SDS011;4779;48.062;11.672;2023-03-24T05:53:48;6.13;;;4.17;;
9481;SDS011;4779;48.062;11.672;2023-03-24T05:56:16;5.20;;;4.70;;
9481;SDS011;4779;48.062;11.672;2023-03-24T05:58:43;4.93;;;4.50;;
9481;SDS011;4779;48.062;11.672;2023-03-24T06:01:11;5.00;;;4.50;;
9481;SDS011;4779;48.062;11.672;2023-03-24T06:03:42;6.20;;;4.50;;
9481;SDS011;4779;48.062;11.672;2023-03-24T06:06:09;5.10;;;4.60;;
9481;SDS011;4779;48.062;11.672;2023-03-24T06:08:40;5.50;;;4.50;;
9481;SDS011;4779;48.062;11.672;2023-03-24T06:11:09;5.77;;;4.80;;
9481;SDS011;4779;48.062;11.672;2023-03-24T06:13:36;5.10;;;4.60;;
9481;SDS011;4779;48.062;11.672;2023-03-24T06:16:04;5.40;;;4.90;;
9481;SDS011;4779;48.062;11.672;2023-03-24T06:18:33;5.13;;;4.63;;
9481;SDS011;4779;48.062;11.672;2023-03-24T06:21:00;5.20;;;4.70;;
9481;SDS011;4779;48.062;11.672;2023-03-24T06:23:28;6.07;;;4.50;;
9481;SDS011;4779;48.062;11.672;2023-03-24T06:25:59;5.13;;;4.20;;
9481;SDS011;4779;48.062;11.672;2023-03-24T06:28:32;5.40;;;4.30;;
9481;SDS011;4779;48.062;11.672;2023-03-24T06:30:59;5.20;;;4.70;;
9481;SDS011;4779;48.062;11.672;2023-03-24T06:33:26;5.47;;;4.50;;
9481;SDS011;4779;48.062;11.672;2023-03-24T06:35:55;5.00;;;4.50;;
9481;SDS011;4779;48.062;11.672;2023-03-24T06:38:22;4.80;;;4.03;;
9481;SDS011;4779;48.062;11.672;2023-03-24T06:40:49;5.70;;;4.40;;
9481;SDS011;4779;48.062;11.672;2023-03-24T06:43:15;5.60;;;4.60;;
9481;SDS011;4779;48.062;11.672;2023-03-24T06:45:42;6.37;;;4.77;;
9481;SDS011;4779;48.062;11.672;2023-03-24T06:48:10;5.60;;;5.00;;
9481;SDS011;4779;48.062;11.672;2023-03-24T06:50:36;5.57;;;5.00;;
9481;SDS011;4779;48.062;11.672;2023-03-24T06:53:05;5.50;;;4.93;;
9481;SDS011;4779;48.062;11.672;2023-03-24T06:55:31;5.53;;;4.90;;
9481;SDS011;4779;48.062;11.672;2023-03-24T06:57:58;5.10;;;4.60;;
9481;SDS011;4779;48.062;11.672;2023-03-24T07:00:25;4.90;;;4.40;;
9481;SDS011;4779;48.062;11.672;2023-03-24T07:02:53;5.53;;;5.00;;
9481;SDS011;4779;48.062;11.672;2023-03-24T07:05:20;5.43;;;4.87;;
9481;SDS011;4779;48.062;11.672;2023-03-24T07:07:47;5.43;;;4.70;;
9481;SDS011;4779;48.062;11.672;2023-03-24T07:10:16;5.13;;;4.30;;
9481;SDS011;4779;48.062;11.672;2023-03-24T07:12:45;6.53;;;5.00;;
9481;SDS011;4779;48.062;11.672;2023-03-24T07:15:13;6.93;;;4.53;;
9481;SDS011;4779;48.062;11.672;2023-03-24T07:17:40;6.57;;;5.33;;
9481;SDS011;4779;48.062;11.672;2023-03-24T07:20:07;5.20;;;4.70;;
9481;SDS011;4779;48.062;11.672;2023-03-24T07:22:34;5.03;;;4.53;;
9481;SDS011;4779;48.062;11.672;2023-03-24T07:25:01;6.93;;;5.33;;
9481;SDS011;4779;48.062;11.672;2023-03-24T07:27:30;4.97;;;4.47;;
9481;SDS011;4779;48.062;11.672;2023-03-24T07:29:57;6.23;;;5.63;;
9481;SDS011;4779;48.062;11.672;2023-03-24T07:32:24;7.77;;;5.63;;
9481;SDS011;4779;48.062;11.672;2023-03-24T07:34:52;11.83;;;6.63;;
9481;SDS011;4779;48.062;11.672;2023-03-24T07:37:19;6.07;;;5.53;;
9481;SDS011;4779;48.062;11.672;2023-03-24T07:39:46;6.80;;;5.43;;
9481;SDS011;4779;48.062;11.672;2023-03-24T07:42:13;6.27;;;4.90;;
9481;SDS011;4779;48.062;11.672;2023-03-24T07:44:42;7.67;;;6.30;;
9481;SDS011;4779;48.062;11.672;2023-03-24T07:47:08;6.60;;;5.90;;
9481;SDS011;4779;48.062;11.672;2023-03-24T07:49:36;7.53;;;5.83;;
9481;SDS011;4779;48.062;11.672;2023-03-24T07:52:03;6.63;;;6.03;;
9481;SDS011;4779;48.062;11.672;2023-03-24T07:54:31;7.30;;;5.60;;
9481;SDS011;4779;48.062;11.672;2023-03-24T07:56:58;7.37;;;5.07;;
9481;SDS011;4779;48.062;11.672;2023-03-24T07:59:26;7.00;;;5.50;;
9481;SDS011;4779;48.062;11.672;2023-03-24T08:01:54;5.93;;;5.33;;
9481;SDS011;4779;48.062;11.672;2023-03-24T08:04:21;5.87;;;5.27;;
9481;SDS011;4779;48.062;11.672;2023-03-24T08:06:48;6.50;;;5.53;;
9481;SDS011;4779;48.062;11.672;2023-03-24T08:09:16;5.70;;;5.10;;
9481;SDS011;4779;48.062;11.672;2023-03-24T08:11:44;15.17;;;9.80;;
9481;SDS011;4779;48.062;11.672;2023-03-24T08:14:11;12.37;;;9.63;;
9481;SDS011;4779;48.062;11.672;2023-03-24T08:16:37;12.80;;;10.73;;
9481;SDS011;4779;48.062;11.672;2023-03-24T08:19:06;12.30;;;10.03;;
9481;SDS011;4779;48.062;11.672;2023-03-24T08:21:33;10.70;;;8.40;;
9481;SDS011;4779;48.062;11.672;2023-03-24T08:24:00;9.97;;;8.83;;
9481;SDS011;4779;48.062;11.672;2023-03-24T08:26:27;9.90;;;8.50;;
9481;SDS011;4779;48.062;11.672;2023-03-24T08:28:55;9.53;;;7.43;;
9481;SDS011;4779;48.062;11.672;2023-03-24T08:31:22;7.13;;;6.33;;
9481;SDS011;4779;48.062;11.672;2023-03-24T08:33:48;6.57;;;5.80;;
9481;SDS011;4779;48.062;11.672;2023-03-24T08:36:17;8.20;;;6.60;;
9481;SDS011;4779;48.062;11.672;2023-03-24T08:38:43;6.80;;;6.10;;
9481;SDS011;4779;48.062;11.672;2023-03-24T08:41:12;7.70;;;6.23;;
9481;SDS011;4779;48.062;11.672;2023-03-24T08:43:39;6.20;;;5.57;;
9481;SDS011;4779;48.062;11.672;2023-03-24T08:46:06;7.10;;;5.70;;
9481;SDS011;4779;48.062;11.672;2023-03-24T08:48:34;5.80;;;5.23;;
9481;SDS011;4779;48.062;11.672;2023-03-24T08:51:08;5.87;;;5.27;;
9481;SDS011;4779;48.062;11.672;2023-03-24T08:53:38;4.77;;;4.37;;
9481;SDS011;4779;48.062;11.672;2023-03-24T08:56:05;5.27;;;4.37;;
9481;SDS011;4779;48.062;11.672;2023-03-24T08:58:33;4.57;;;4.17;;
9481;SDS011;4779;48.062;11.672;2023-03-24T09:01:00;4.77;;;4.17;;
9481;SDS011;4779;48.062;11.672;2023-03-24T09:03:27;3.97;;;3.60;;
9481;SDS011;4779;48.062;11.672;2023-03-24T09:05:55;5.40;;;4.37;;
9481;SDS011;4779;48.062;11.672;2023-03-24T09:08:22;3.67;;;3.37;;
9481;SDS011;4779;48.062;11.672;2023-03-24T09:10:51;3.00;;;2.77;;
9481;SDS011;4779;48.062;11.672;2023-03-24T09:13:18;3.03;;;2.80;;
9481;SDS011;4779;48.062;11.672;2023-03-24T09:15:46;3.10;;;2.90;;
9481;SDS011;4779;48.062;11.672;2023-03-24T09:18:14;3.07;;;2.83;;
9481;SDS011;4779;48.062;11.672;2023-03-24T09:20:41;3.30;;;3.00;;
9481;SDS011;4779;48.062;11.672;2023-03-24T09:23:08;3.23;;;2.70;;
9481;SDS011;4779;48.062;11.672;2023-03-24T09:25:35;3.07;;;2.77;;
9481;SDS011;4779;48.062;11.672;2023-03-24T09:28:04;3.00;;;2.60;;
9481;SDS011;4779;48.062;11.672;2023-03-24T09:30:31;3.07;;;2.60;;
9481;SDS011;4779;48.062;11.672;2023-03-24T09:32:58;2.53;;;2.33;;
9481;SDS011;4779;48.062;11.672;2023-03-24T09:35:25;2.67;;;2.47;;
9481;SDS011;4779;48.062;11.672;2023-03-24T09:37:52;4.20;;;2.70;;
9481;SDS011;4779;48.062;11.672;2023-03-24T09:40:20;2.60;;;2.40;;
9481;SDS011;4779;48.062;11.672;2023-03-24T09:42:51;2.80;;;2.50;;
9481;SDS011;4779;48.062;11.672;2023-03-24T09:45:25;2.80;;;2.60;;
9481;SDS011;4779;48.062;11.672;2023-03-24T09:47:55;2.63;;;2.43;;
9481;SDS011;4779;48.062;11.672;2023-03-24T09:50:26;2.93;;;2.20;;
9481;SDS011;4779;48.062;11.672;2023-03-24T09:52:59;2.30;;;2.10;;
9481;SDS011;4779;48.062;11.672;2023-03-24T09:55:32;2.70;;;2.50;;
9481;SDS011;4779;48.062;11.672;2023-03-24T09:58:04;4.00;;;2.50;;
9481;SDS011;4779;48.062;11.672;2023-03-24T10:00:35;2.63;;;2.43;;
9481;SDS011;4779;48.062;11.672;2023-03-24T10:03:09;2.90;;;2.63;;
9481;SDS011;4779;48.062;11.672;2023-03-24T10:05:40;3.03;;;2.73;;
9481;SDS011;4779;48.062;11.672;2023-03-24T10:08:11;2.90;;;2.60;;
9481;SDS011;4779;48.062;11.672;2023-03-24T10:10:44;4.10;;;3.10;;
9481;SDS011;4779;48.062;11.672;2023-03-24T10:13:21;3.70;;;2.80;;
9481;SDS011;4779;48.062;11.672;2023-03-24T10:16:00;3.70;;;2.80;;
9481;SDS011;4779;48.062;11.672;2023-03-24T10:18:32;2.70;;;2.50;;
9481;SDS011;4779;48.062;11.672;2023-03-24T10:21:04;2.93;;;2.70;;
9481;SDS011;4779;48.062;11.672;2023-03-24T10:23:38;3.87;;;3.00;;
9481;SDS011;4779;48.062;11.672;2023-03-24T10:26:14;2.93;;;2.73;;
9481;SDS011;4779;48.062;11.672;2023-03-24T10:28:50;3.27;;;2.97;;
9481;SDS011;4779;48.062;11.672;2023-03-24T10:31:26;4.37;;;3.30;;
9481;SDS011;4779;48.062;11.672;2023-03-24T10:33:54;3.50;;;3.20;;
9481;SDS011;4779;48.062;11.672;2023-03-24T10:36:21;4.83;;;3.60;;
9481;SDS011;4779;48.062;11.672;2023-03-24T10:38:50;3.80;;;3.13;;
9481;SDS011;4779;48.062;11.672;2023-03-24T10:41:17;3.43;;;3.13;;
9481;SDS011;4779;48.062;11.672;2023-03-24T10:43:46;4.17;;;3.77;;
9481;SDS011;4779;48.062;11.672;2023-03-24T10:46:16;5.20;;;3.57;;
9481;SDS011;4779;48.062;11.672;2023-03-24T10:48:48;3.67;;;3.33;;
9481;SDS011;4779;48.062;11.672;2023-03-24T10:51:17;5.13;;;3.53;;
9481;SDS011;4779;48.062;11.672;2023-03-24T10:53:45;3.87;;;3.47;;
9481;SDS011;4779;48.062;11.672;2023-03-24T10:56:17;4.23;;;3.30;;
9481;SDS011;4779;48.062;11.672;2023-03-24T10:59:01;3.27;;;2.97;;
9481;SDS011;4779;48.062;11.672;2023-03-24T11:01:29;3.83;;;3.20;;
9481;SDS011;4779;48.062;11.672;2023-03-24T11:04:01;3.10;;;2.63;;
9481;SDS011;4779;48.062;11.672;2023-03-24T11:06:31;3.20;;;2.90;;
9481;SDS011;4779;48.062;11.672;2023-03-24T11:09:08;3.10;;;2.90;;
9481;SDS011;4779;48.062;11.672;2023-03-24T11:11:36;4.83;;;3.27;;
9481;SDS011;4779;48.062;11.672;2023-03-24T11:14:02;2.67;;;2.47;;
9481;SDS011;4779;48.062;11.672;2023-03-24T11:16:46;2.63;;;2.43;;
9481;SDS011;4779;48.062;11.672;2023-03-24T11:19:18;3.47;;;2.30;;
9481;SDS011;4779;48.062;11.672;2023-03-24T11:21:46;2.50;;;2.30;;
9481;SDS011;4779;48.062;11.672;2023-03-24T11:24:15;3.40;;;2.17;;
9481;SDS011;4779;48.062;11.672;2023-03-24T11:26:44;2.53;;;2.33;;
9481;SDS011;4779;48.062;11.672;2023-03-24T11:29:16;3.17;;;2.50;;
9481;SDS011;4779;48.062;11.672;2023-03-24T11:31:50;2.53;;;2.33;;
9481;SDS011;4779;48.062;11.672;2023-03-24T11:34:21;2.50;;;2.30;;
9481;SDS011;4779;48.062;11.672;2023-03-24T11:36:51;2.90;;;2.60;;
9481;SDS011;4779;48.062;11.672;2023-03-24T11:39:21;2.90;;;2.60;;
9481;SDS011;4779;48.062;11.672;2023-03-24T11:41:51;4.37;;;3.13;;
9481;SDS011;4779;48.062;11.672;2023-03-24T11:44:28;2.90;;;2.70;;
9481;SDS011;4779;48.062;11.672;2023-03-24T11:46:57;3.97;;;2.90;;
9481;SDS011;4779;48.062;11.672;2023-03-24T11:49:29;4.00;;;2.80;;
9481;SDS011;4779;48.062;11.672;2023-03-24T11:51:59;2.57;;;2.37;;
9481;SDS011;4779;48.062;11.672;2023-03-24T11:54:29;2.80;;;2.60;;
9481;SDS011;4779;48.062;11.672;2023-03-24T11:56:59;3.30;;;3.00;;
9481;SDS011;4779;48.062;11.672;2023-03-24T11:59:32;3.27;;;3.07;;
9481;SDS011;4779;48.062;11.672;2023-03-24T12:02:08;4.57;;;3.00;;
9481;SDS011;4779;48.062;11.672;2023-03-24T12:04:46;3.10;;;2.80;;
9481;SDS011;4779;48.062;11.672;2023-03-24T12:07:33;4.10;;;2.90;;
9481;SDS011;4779;48.062;11.672;2023-03-24T12:10:20;2.73;;;2.50;;
9481;SDS011;4779;48.062;11.672;2023-03-24T12:12:57;2.87;;;2.67;;
9481;SDS011;4779;48.062;11.672;2023-03-24T12:15:44;3.07;;;2.77;;
9481;SDS011;4779;48.062;11.672;2023-03-24T12:18:23;2.80;;;2.60;;
9481;SDS011;4779;48.062;11.672;2023-03-24T12:21:15;4.00;;;2.90;;
9481;SDS011;4779;48.062;11.672;2023-03-24T12:23:53;3.77;;;3.23;;
9481;SDS011;4779;48.062;11.672;2023-03-24T12:26:23;3.33;;;3.03;;
9481;SDS011;4779;48.062;11.672;2023-03-24T12:28:57;4.53;;;3.40;;
9481;SDS011;4779;48.062;11.672;2023-03-24T12:34:42;4.37;;;3.13;;
9481;SDS011;4779;48.062;11.672;2023-03-24T12:37:28;3.70;;;3.40;;
9481;SDS011;4779;48.062;11.672;2023-03-24T12:40:01;4.40;;;4.00;;
9481;SDS011;4779;48.062;11.672;2023-03-24T12:42:47;3.87;;;3.50;;
9481;SDS011;4779;48.062;11.672;2023-03-24T12:45:31;4.27;;;3.80;;
9481;SDS011;4779;48.062;11.672;2023-03-24T12:48:18;4.03;;;3.63;;
9481;SDS011;4779;48.062;11.672;2023-03-24T12:51:11;3.40;;;3.10;;
9481;SDS011;4779;48.062;11.672;2023-03-24T12:53:52;3.97;;;3.67;;
9481;SDS011;4779;48.062;11.672;2023-03-24T12:56:30;4.20;;;3.80;;
9481;SDS011;4779;48.062;11.672;2023-03-24T12:59:02;4.30;;;3.95;;
9481;SDS011;4779;48.062;11.672;2023-03-24T13:01:34;3.60;;;3.30;;
9481;SDS011;4779;48.062;11.672;2023-03-24T13:04:06;5.10;;;4.10;;
9481;SDS011;4779;48.062;11.672;2023-03-24T13:06:38;4.10;;;3.73;;
9481;SDS011;4779;48.062;11.672;2023-03-24T13:09:13;4.30;;;4.00;;
9481;SDS011;4779;48.062;11.672;2023-03-24T13:11:49;4.50;;;4.10;;
9481;SDS011;4779;48.062;11.672;2023-03-24T13:14:24;4.45;;;4.05;;
9481;SDS011;4779;48.062;11.672;2023-03-24T13:16:59;4.28;;;3.95;;
9481;SDS011;4779;48.062;11.672;2023-03-24T13:19:30;4.55;;;4.15;;
9481;SDS011;4779;48.062;11.672;2023-03-24T13:22:00;5.05;;;4.38;;
9481;SDS011;4779;48.062;11.672;2023-03-24T13:24:32;4.38;;;3.97;;
9481;SDS011;4779;48.062;11.672;2023-03-24T13:27:01;4.50;;;4.10;;
9481;SDS011;4779;48.062;11.672;2023-03-24T13:29:45;5.43;;;4.93;;
9481;SDS011;4779;48.062;11.672;2023-03-24T13:32:27;6.20;;;5.60;;
9481;SDS011;4779;48.062;11.672;2023-03-24T13:34:59;5.47;;;4.43;;
9481;SDS011;4779;48.062;11.672;2023-03-24T13:37:31;4.10;;;3.70;;
9481;SDS011;4779;48.062;11.672;2023-03-24T13:40:04;4.32;;;3.75;;
9481;SDS011;4779;48.062;11.672;2023-03-24T13:42:36;4.90;;;3.72;;
9481;SDS011;4779;48.062;11.672;2023-03-24T13:45:19;4.97;;;4.40;;
9481;SDS011;4779;48.062;11.672;2023-03-24T13:47:54;4.30;;;3.90;;
9481;SDS011;4779;48.062;11.672;2023-03-24T13:50:30;4.80;;;4.10;;
9481;SDS011;4779;48.062;11.672;2023-03-24T13:53:00;3.80;;;3.50;;
9481;SDS011;4779;48.062;11.672;2023-03-24T13:55:35;3.70;;;3.40;;
9481;SDS011;4779;48.062;11.672;2023-03-24T13:58:05;3.70;;;3.40;;
9481;SDS011;4779;48.062;11.672;2023-03-24T14:03:31;2.23;;;1.67;;
9481;SDS011;4779;48.062;11.672;2023-03-24T14:06:01;1.70;;;1.60;;
9481;SDS011;4779;48.062;11.672;2023-03-24T14:08:34;1.97;;;1.73;;
9481;SDS011;4779;48.062;11.672;2023-03-24T14:11:11;1.63;;;1.30;;
9481;SDS011;4779;48.062;11.672;2023-03-24T14:14:15;1.97;;;1.67;;
9481;SDS011;4779;48.062;11.672;2023-03-24T14:16:48;1.33;;;1.23;;
9481;SDS011;4779;48.062;11.672;2023-03-24T14:19:21;1.83;;;1.27;;
9481;SDS011;4779;48.062;11.672;2023-03-24T14:21:56;2.37;;;1.40;;
9481;SDS011;4779;48.062;11.672;2023-03-24T14:24:28;1.57;;;1.47;;
9481;SDS011;4779;48.062;11.672;2023-03-24T14:26:58;1.50;;;1.40;;
9481;SDS011;4779;48.062;11.672;2023-03-24T14:29:32;2.47;;;1.40;;
9481;SDS011;4779;48.062;11.672;2023-03-24T14:32:03;1.37;;;1.07;;
9481;SDS011;4779;48.062;11.672;2023-03-24T14:34:31;1.80;;;1.33;;
9481;SDS011;4779;48.062;11.672;2023-03-24T14:37:01;1.37;;;1.27;;
9481;SDS011;4779;48.062;11.672;2023-03-24T14:39:34;1.30;;;1.20;;
9481;SDS011;4779;48.062;11.672;2023-03-24T14:48:37;1.20;;;1.10;;
9481;SDS011;4779;48.062;11.672;2023-03-24T14:51:12;1.13;;;1.03;;
9481;SDS011;4779;48.062;11.672;2023-03-24T14:54:00;1.47;;;1.00;;
9481;SDS011;4779;48.062;11.672;2023-03-24T14:56:32;1.77;;;1.20;;
9481;SDS011;4779;48.062;11.672;2023-03-24T14:59:04;0.87;;;0.87;;
9481;SDS011;4779;48.062;11.672;2023-03-24T15:01:37;1.30;;;1.00;;
9481;SDS011;4779;48.062;11.672;2023-03-24T15:04:09;1.00;;;0.97;;
9481;SDS011;4779;48.062;11.672;2023-03-24T15:06:43;1.00;;;0.93;;
9481;SDS011;4779;48.062;11.672;2023-03-24T15:09:11;1.50;;;1.10;;
9481;SDS011;4779;48.062;11.672;2023-03-24T15:11:41;0.80;;;0.80;;
9481;SDS011;4779;48.062;11.672;2023-03-24T15:14:15;1.60;;;1.17;;
9481;SDS011;4779;48.062;11.672;2023-03-24T15:16:51;1.43;;;1.07;;
9481;SDS011;4779;48.062;11.672;2023-03-24T15:19:21;1.10;;;1.00;;
9481;SDS011;4779;48.062;11.672;2023-03-24T15:21:57;0.90;;;0.90;;
9481;SDS011;4779;48.062;11.672;2023-03-24T15:24:27;1.10;;;0.93;;
9481;SDS011;4779;48.062;11.672;2023-03-24T15:29:58;1.37;;;1.00;;
9481;SDS011;4779;48.062;11.672;2023-03-24T15:32:26;1.17;;;1.07;;
9481;SDS011;4779;48.062;11.672;2023-03-24T15:34:57;0.97;;;0.97;;
9481;SDS011;4779;48.062;11.672;2023-03-24T15:37:30;0.97;;;0.97;;
9481;SDS011;4779;48.062;11.672;2023-03-24T15:39:58;1.23;;;1.13;;
9481;SDS011;4779;48.062;11.672;2023-03-24T15:42:26;1.00;;;1.00;;
9481;SDS011;4779;48.062;11.672;2023-03-24T15:44:53;1.03;;;1.00;;
9481;SDS011;4779;48.062;11.672;2023-03-24T15:47:22;1.10;;;1.07;;
9481;SDS011;4779;48.062;11.672;2023-03-24T15:49:51;0.80;;;0.80;;
9481;SDS011;4779;48.062;11.672;2023-03-24T15:52:24;1.70;;;1.10;;
9481;SDS011;4779;48.062;11.672;2023-03-24T15:54:53;1.30;;;1.03;;
9481;SDS011;4779;48.062;11.672;2023-03-24T15:57:23;1.23;;;1.13;;
9481;SDS011;4779;48.062;11.672;2023-03-24T15:59:54;1.07;;;0.93;;
9481;SDS011;4779;48.062;11.672;2023-03-24T16:02:38;1.27;;;1.00;;
9481;SDS011;4779;48.062;11.672;2023-03-24T16:05:11;1.23;;;1.10;;
9481;SDS011;4779;48.062;11.672;2023-03-24T16:07:43;2.13;;;1.50;;
9481;SDS011;4779;48.062;11.672;2023-03-24T16:10:33;2.40;;;1.80;;
9481;SDS011;4779;48.062;11.672;2023-03-24T16:13:11;2.60;;;2.03;;